createdAt,value
2023-01-01T00:01:46.887Z,3.79
2023-01-01T00:04:17.732Z,3.76
2023-01-01T00:06:45.542Z,3.80
2023-01-01T00:09:31.286Z,3.78
2023-01-01T00:12:04.367Z,3.75
2023-01-01T00:14:31.044Z,3.75
2023-01-01T00:16:57.862Z,3.75
2023-01-01T00:19:24.616Z,3.72
2023-01-01T00:21:51.356Z,3.70
2023-01-01T00:24:18.018Z,3.69
2023-01-01T00:26:44.746Z,3.70
2023-01-01T00:29:11.633Z,3.69
2023-01-01T00:31:38.375Z,3.68
2023-01-01T00:34:05.138Z,3.68
2023-01-01T00:36:31.871Z,3.68
2023-01-01T00:38:58.839Z,3.64
2023-01-01T00:41:25.556Z,3.65
2023-01-01T00:43:52.271Z,3.62
2023-01-01T00:46:19.224Z,3.61
2023-01-01T00:48:45.951Z,3.59
2023-01-01T00:51:12.794Z,3.58
2023-01-01T00:53:39.899Z,3.62
2023-01-01T00:56:06.890Z,3.63
2023-01-01T00:58:33.756Z,3.63
2023-01-01T01:01:00.804Z,3.63
2023-01-01T01:03:30.802Z,3.61
2023-01-01T01:06:18.393Z,3.61
2023-01-01T01:08:46.898Z,3.57
2023-01-01T01:11:18.945Z,3.55
2023-01-01T01:13:48.159Z,3.54
2023-01-01T01:16:16.753Z,3.52
2023-01-01T01:18:44.279Z,3.49
2023-01-01T01:21:15.044Z,3.47
2023-01-01T01:23:41.727Z,3.46
2023-01-01T01:26:27.035Z,3.44
2023-01-01T01:28:56.108Z,3.43
2023-01-01T01:31:24.778Z,3.35
2023-01-01T01:33:51.888Z,3.29
2023-01-01T01:36:19.639Z,3.24
2023-01-01T01:38:47.060Z,3.20
2023-01-01T01:41:26.766Z,3.19
2023-01-01T01:44:02.718Z,3.18
2023-01-01T01:46:29.870Z,3.19
2023-01-01T01:49:02.692Z,3.15
2023-01-01T01:51:38.443Z,3.08
2023-01-01T01:54:12.738Z,3.09
2023-01-01T01:56:49.533Z,3.11
2023-01-01T01:59:18.107Z,3.11
2023-01-01T02:01:44.933Z,3.11
2023-01-01T02:04:12.389Z,3.13
2023-01-01T02:06:40.119Z,3.14
2023-01-01T02:09:09.005Z,3.15
2023-01-01T02:11:35.896Z,3.14
2023-01-01T02:14:04.179Z,3.13
2023-01-01T02:16:43.798Z,3.11
2023-01-01T02:19:47.913Z,3.11
2023-01-01T02:22:43.778Z,3.11
2023-01-01T02:25:42.734Z,3.08
2023-01-01T02:28:19.896Z,3.08
2023-01-01T02:30:48.508Z,3.06
2023-01-01T02:33:20.408Z,3.03
2023-01-01T02:35:54.171Z,3.02
2023-01-01T02:38:26.575Z,2.98
2023-01-01T02:41:02.088Z,2.98
2023-01-01T02:43:28.986Z,2.96
2023-01-01T02:45:56.340Z,2.92
2023-01-01T02:48:41.592Z,2.81
2023-01-01T02:51:31.007Z,2.73
2023-01-01T02:54:19.950Z,2.69
2023-01-01T02:57:04.526Z,2.69
2023-01-01T02:59:59.673Z,2.66
2023-01-01T03:02:52.974Z,2.65
2023-01-01T03:05:37.361Z,2.65
2023-01-01T03:08:24.608Z,2.66
2023-01-01T03:11:05.601Z,2.66
2023-01-01T03:13:49.860Z,2.67
2023-01-01T03:16:25.089Z,2.69
2023-01-01T03:19:12.527Z,2.61
2023-01-01T03:21:54.704Z,2.50
2023-01-01T03:24:37.259Z,2.44
2023-01-01T03:27:09.004Z,2.41
2023-01-01T03:29:40.637Z,2.41
2023-01-01T03:32:14.410Z,2.39
2023-01-01T03:34:47.465Z,2.36
2023-01-01T03:37:19.593Z,2.31
2023-01-01T03:39:53.219Z,2.29
2023-01-01T03:42:36.310Z,2.30
2023-01-01T03:45:16.533Z,2.32
2023-01-01T03:47:43.584Z,2.38
2023-01-01T03:50:10.562Z,2.44
2023-01-01T03:53:07.334Z,2.51
2023-01-01T03:55:48.134Z,2.49
2023-01-01T03:58:48.251Z,2.43
2023-01-01T04:01:23.898Z,2.41
2023-01-01T04:03:51.178Z,2.38
2023-01-01T04:06:20.777Z,2.38
2023-01-01T04:08:50.457Z,2.38
2023-01-01T04:11:41.741Z,2.36
2023-01-01T04:14:08.704Z,2.32
2023-01-01T04:16:35.466Z,2.30
2023-01-01T04:19:02.202Z,2.30
2023-01-01T04:21:28.857Z,2.30
2023-01-01T04:23:55.559Z,2.30
2023-01-01T04:26:22.225Z,2.28
2023-01-01T04:28:48.881Z,2.29
2023-01-01T04:31:15.528Z,2.32
2023-01-01T04:33:42.200Z,2.34
2023-01-01T04:36:10.404Z,2.30
2023-01-01T04:38:38.316Z,2.30
2023-01-01T04:41:05.429Z,2.29
2023-01-01T04:43:32.478Z,2.28
2023-01-01T04:46:01.117Z,2.29
2023-01-01T04:48:28.790Z,2.28
2023-01-01T04:51:00.487Z,2.25
2023-01-01T04:53:29.925Z,2.26
2023-01-01T04:55:58.599Z,2.24
2023-01-01T04:58:25.269Z,2.21
2023-01-01T05:00:52.056Z,2.18
2023-01-01T05:03:18.774Z,2.13
2023-01-01T05:05:51.230Z,2.09
2023-01-01T05:08:18.164Z,2.04
2023-01-01T05:10:44.844Z,1.99
2023-01-01T05:13:11.482Z,2.01
2023-01-01T05:15:38.295Z,2.02
2023-01-01T05:18:05.101Z,2.05
2023-01-01T05:20:31.949Z,2.07
2023-01-01T05:22:58.613Z,2.07
2023-01-01T05:25:25.285Z,2.09
2023-01-01T05:27:52.000Z,2.08
2023-01-01T05:30:18.743Z,2.05
2023-01-01T05:32:45.514Z,2.04
2023-01-01T05:35:15.454Z,2.01
2023-01-01T05:37:42.301Z,1.98
2023-01-01T05:40:09.670Z,1.92
2023-01-01T05:42:36.492Z,1.88
2023-01-01T05:45:04.656Z,1.88
2023-01-01T05:47:31.405Z,1.87
2023-01-01T05:49:58.167Z,1.88
2023-01-01T05:52:26.983Z,1.87
2023-01-01T05:54:53.869Z,1.86
2023-01-01T05:57:20.517Z,1.83
2023-01-01T05:59:47.182Z,1.81
2023-01-01T06:02:16.691Z,1.83
2023-01-01T06:04:43.430Z,1.82
2023-01-01T06:07:10.206Z,1.85
2023-01-01T06:09:36.903Z,1.87
2023-01-01T06:12:03.827Z,1.87
2023-01-01T06:14:30.506Z,1.87
2023-01-01T06:16:57.195Z,1.80
2023-01-01T06:19:23.836Z,1.77
2023-01-01T06:21:53.469Z,1.74
2023-01-01T06:24:20.116Z,1.75
2023-01-01T06:26:46.846Z,1.76
2023-01-01T06:29:16.213Z,1.75
2023-01-01T06:31:42.913Z,1.70
2023-01-01T06:34:09.955Z,1.65
2023-01-01T06:36:36.640Z,1.63
2023-01-01T06:39:06.376Z,1.59
2023-01-01T06:41:33.327Z,1.59
2023-01-01T06:44:04.699Z,1.59
2023-01-01T06:46:34.007Z,1.58
2023-01-01T06:49:23.114Z,1.55
2023-01-01T06:51:49.823Z,1.51
2023-01-01T06:54:16.521Z,1.49
2023-01-01T06:56:43.252Z,1.49
2023-01-01T06:59:09.996Z,1.49
2023-01-01T07:01:39.898Z,1.50
2023-01-01T07:04:13.124Z,1.51
2023-01-01T07:06:39.965Z,1.53
2023-01-01T07:09:11.079Z,1.53
2023-01-01T07:11:37.823Z,1.52
2023-01-01T07:14:04.873Z,1.50
2023-01-01T07:16:31.652Z,1.48
2023-01-01T07:18:58.507Z,1.50
2023-01-01T07:21:34.257Z,1.50
2023-01-01T07:24:05.651Z,1.50
2023-01-01T07:26:36.303Z,1.50
2023-01-01T07:29:07.454Z,1.47
2023-01-01T07:31:42.067Z,1.46
2023-01-01T07:34:14.193Z,1.41
2023-01-01T07:36:41.558Z,1.39
2023-01-01T07:39:09.000Z,1.38
2023-01-01T07:41:36.183Z,1.38
2023-01-01T07:44:02.934Z,1.36
2023-01-01T07:46:30.232Z,1.33
2023-01-01T07:48:57.191Z,1.28
2023-01-01T07:51:23.942Z,1.26
2023-01-01T07:53:50.683Z,1.20
2023-01-01T07:56:24.987Z,1.17
2023-01-01T07:58:51.656Z,1.13
2023-01-01T08:01:19.500Z,1.13
2023-01-01T08:03:51.088Z,1.11
2023-01-01T08:06:18.226Z,1.11
2023-01-01T08:08:44.872Z,1.11
2023-01-01T08:11:11.578Z,1.07
2023-01-01T08:13:38.306Z,1.01
2023-01-01T08:16:05.517Z,0.97
2023-01-01T08:18:32.274Z,0.87
2023-01-01T08:20:59.071Z,0.72
2023-01-01T08:23:25.814Z,0.56
2023-01-01T08:25:54.531Z,0.43
2023-01-01T08:28:21.188Z,0.36
2023-01-01T08:30:47.850Z,0.35
2023-01-01T08:33:14.723Z,0.31
2023-01-01T08:35:50.315Z,0.25
2023-01-01T08:38:20.559Z,0.16
2023-01-01T08:40:47.292Z,0.09
2023-01-01T08:43:14.350Z,0.07
2023-01-01T08:45:41.069Z,0.05
2023-01-01T08:48:08.061Z,0.08
2023-01-01T08:50:34.861Z,0.12
2023-01-01T08:53:01.580Z,0.16
2023-01-01T08:55:28.410Z,0.21
2023-01-01T08:57:57.987Z,0.26
2023-01-01T09:00:24.826Z,0.29
2023-01-01T09:02:51.668Z,0.31
2023-01-01T09:05:18.388Z,0.34
2023-01-01T09:07:47.524Z,0.37
2023-01-01T09:10:14.359Z,0.38
2023-01-01T09:12:41.055Z,0.38
2023-01-01T09:15:14.623Z,0.42
2023-01-01T09:17:41.281Z,0.44
2023-01-01T09:20:08.343Z,0.49
2023-01-01T09:22:35.009Z,0.55
2023-01-01T09:25:03.781Z,0.56
2023-01-01T09:27:30.461Z,0.62
2023-01-01T09:30:00.447Z,0.67
2023-01-01T09:32:27.231Z,0.73
2023-01-01T09:34:53.983Z,0.76
2023-01-01T09:37:20.727Z,0.82
2023-01-01T09:39:47.508Z,0.84
2023-01-01T09:42:38.955Z,0.87
2023-01-01T09:45:23.395Z,0.94
2023-01-01T09:47:54.403Z,1.02
2023-01-01T09:50:49.308Z,1.08
2023-01-01T09:53:21.824Z,1.15
2023-01-01T09:55:56.426Z,1.21
2023-01-01T09:58:37.387Z,1.30
2023-01-01T10:01:17.385Z,1.38
2023-01-01T10:03:59.638Z,1.43
2023-01-01T10:06:32.041Z,1.47
2023-01-01T10:09:10.495Z,1.51
2023-01-01T10:12:19.020Z,1.55
2023-01-01T10:14:59.738Z,1.58
2023-01-01T10:17:34.482Z,1.58
2023-01-01T10:20:32.010Z,1.61
2023-01-01T10:23:07.553Z,1.67
2023-01-01T10:25:38.168Z,1.70
2023-01-01T10:28:15.584Z,1.68
2023-01-01T10:30:44.199Z,1.64
2023-01-01T10:33:14.723Z,1.62
2023-01-01T10:35:52.481Z,1.68
2023-01-01T10:38:36.244Z,1.73
2023-01-01T10:41:13.678Z,1.83
2023-01-01T10:43:49.555Z,1.86
2023-01-01T10:46:29.476Z,1.86
2023-01-01T10:49:13.749Z,1.84
2023-01-01T10:51:51.964Z,1.83
2023-01-01T10:54:33.233Z,1.82
2023-01-01T10:57:13.209Z,1.79
2023-01-01T10:59:43.110Z,1.79
2023-01-01T11:02:23.265Z,1.78
2023-01-01T11:04:53.506Z,1.76
2023-01-01T11:07:26.047Z,1.73
2023-01-01T11:10:03.603Z,1.69
2023-01-01T11:13:09.432Z,1.66
2023-01-01T11:15:40.439Z,1.61
2023-01-01T11:18:16.001Z,1.58
2023-01-01T11:20:52.433Z,1.51
2023-01-01T11:23:31.160Z,1.44
2023-01-01T11:26:17.636Z,1.40
2023-01-01T11:29:03.808Z,1.34
2023-01-01T11:31:36.639Z,1.29
2023-01-01T11:34:16.490Z,1.28
2023-01-01T11:36:43.145Z,1.28
2023-01-01T11:39:26.824Z,1.28
2023-01-01T11:41:56.230Z,1.31
2023-01-01T11:44:33.956Z,1.28
2023-01-01T11:47:00.987Z,1.27
2023-01-01T11:49:30.799Z,1.24
2023-01-01T11:52:02.777Z,1.19
2023-01-01T11:54:34.198Z,1.18
2023-01-01T11:57:19.632Z,1.16
2023-01-01T11:59:54.481Z,1.12
2023-01-01T12:02:48.564Z,1.08
2023-01-01T12:05:24.529Z,1.03
2023-01-01T12:07:52.808Z,1.00
2023-01-01T12:10:24.582Z,0.97
2023-01-01T12:12:56.210Z,0.95
2023-01-01T12:15:35.538Z,0.93
2023-01-01T12:18:39.916Z,0.92
2023-01-01T12:21:16.580Z,0.89
2023-01-01T12:23:43.383Z,0.88
2023-01-01T12:26:19.858Z,0.87
2023-01-01T12:29:18.046Z,0.81
2023-01-01T12:32:06.168Z,0.80
2023-01-01T12:34:48.524Z,0.75
2023-01-01T12:37:51.607Z,0.74
2023-01-01T12:40:29.609Z,0.71
2023-01-01T12:43:05.386Z,0.69
2023-01-01T12:46:03.267Z,0.70
2023-01-01T12:48:46.824Z,0.70
2023-01-01T12:51:44.425Z,0.72
2023-01-01T12:54:53.376Z,0.73
2023-01-01T12:57:34.727Z,0.75
2023-01-01T13:00:04.495Z,0.74
2023-01-01T13:02:35.032Z,0.74
2023-01-01T13:05:10.570Z,0.71
2023-01-01T13:07:43.679Z,0.71
2023-01-01T13:10:41.805Z,0.74
2023-01-01T13:13:11.769Z,0.77
2023-01-01T13:15:40.290Z,0.81
2023-01-01T13:18:08.329Z,0.83
2023-01-01T13:20:40.717Z,0.84
2023-01-01T13:23:36.154Z,0.88
2023-01-01T13:26:18.235Z,0.89
2023-01-01T13:29:09.835Z,0.90
2023-01-01T13:31:39.823Z,0.90
2023-01-01T13:34:37.271Z,0.89
2023-01-01T13:37:17.463Z,0.87
2023-01-01T13:40:01.902Z,0.86
2023-01-01T13:42:41.376Z,0.86
2023-01-01T13:46:09.394Z,0.86
2023-01-01T13:48:38.401Z,0.84
2023-01-01T13:51:54.978Z,0.78
2023-01-01T13:54:10.057Z,0.78
2023-01-01T13:56:39.377Z,0.78
2023-01-01T13:59:22.137Z,0.74
2023-01-01T14:02:12.174Z,0.72
2023-01-01T14:04:57.068Z,0.73
2023-01-01T14:07:52.773Z,0.69
2023-01-01T14:10:30.740Z,0.70
2023-01-01T14:13:06.555Z,0.70
2023-01-01T14:15:34.475Z,0.71
2023-01-01T14:18:07.274Z,0.69
2023-01-01T14:20:42.890Z,0.70
2023-01-01T14:23:17.379Z,0.69
2023-01-01T14:25:45.379Z,0.71
2023-01-01T14:28:38.840Z,0.73
2023-01-01T14:31:12.084Z,0.73
2023-01-01T14:33:39.643Z,0.73
2023-01-01T14:36:30.689Z,0.70
2023-01-01T14:39:04.646Z,0.67
2023-01-01T14:41:34.743Z,0.65
2023-01-01T14:44:11.149Z,0.62
2023-01-01T14:46:52.330Z,0.59
2023-01-01T14:49:24.474Z,0.58
2023-01-01T14:52:01.032Z,0.56
2023-01-01T14:54:33.571Z,0.53
2023-01-01T14:57:01.202Z,0.51
2023-01-01T14:59:29.070Z,0.49
2023-01-01T15:02:04.725Z,0.47
2023-01-01T15:04:31.658Z,0.45
2023-01-01T15:07:00.732Z,0.41
2023-01-01T15:09:29.213Z,0.40
2023-01-01T15:11:57.519Z,0.36
2023-01-01T15:14:42.588Z,0.33
2023-01-01T15:17:14.869Z,0.31
2023-01-01T15:19:43.877Z,0.31
2023-01-01T15:22:26.938Z,0.28
2023-01-01T15:24:54.374Z,0.27
2023-01-01T15:27:32.393Z,0.21
2023-01-01T15:30:04.121Z,0.19
2023-01-01T15:32:35.823Z,0.15
2023-01-01T15:35:05.937Z,0.11
2023-01-01T15:37:37.987Z,0.07
2023-01-01T15:40:24.607Z,0.04
2023-01-01T15:42:57.128Z,-0.03
2023-01-01T15:45:39.945Z,-0.07
2023-01-01T15:48:06.609Z,-0.07
2023-01-01T15:50:40.320Z,-0.09
2023-01-01T15:53:25.051Z,-0.15
2023-01-01T15:56:02.705Z,-0.16
2023-01-01T15:58:39.725Z,-0.22
2023-01-01T16:01:13.297Z,-0.22
2023-01-01T16:03:42.545Z,-0.20
2023-01-01T16:06:16.840Z,-0.18
2023-01-01T16:08:44.155Z,-0.18
2023-01-01T16:11:11.238Z,-0.18
2023-01-01T16:13:37.974Z,-0.21
2023-01-01T16:16:07.451Z,-0.25
2023-01-01T16:18:36.376Z,-0.29
2023-01-01T16:21:04.748Z,-0.32
2023-01-01T16:23:31.606Z,-0.37
2023-01-01T16:25:58.292Z,-0.43
2023-01-01T16:28:25.001Z,-0.50
2023-01-01T16:30:52.282Z,-0.56
2023-01-01T16:33:25.728Z,-0.58
2023-01-01T16:35:52.461Z,-0.57
2023-01-01T16:38:19.181Z,-0.57
2023-01-01T16:40:45.882Z,-0.55
2023-01-01T16:43:16.334Z,-0.53
2023-01-01T16:45:44.042Z,-0.51
2023-01-01T16:48:10.854Z,-0.56
2023-01-01T16:50:37.489Z,-0.66
2023-01-01T16:53:04.272Z,-0.75
2023-01-01T16:55:30.931Z,-0.82
2023-01-01T16:58:21.240Z,-0.90
2023-01-01T17:00:44.394Z,-0.99
2023-01-01T17:03:11.143Z,-1.03
2023-01-01T17:05:43.851Z,-1.07
2023-01-01T17:08:11.233Z,-1.04
2023-01-01T17:10:37.906Z,-0.98
2023-01-01T17:13:04.652Z,-0.94
2023-01-01T17:15:32.070Z,-0.91
2023-01-01T17:17:59.037Z,-0.91
2023-01-01T17:20:26.496Z,-0.91
2023-01-01T17:22:55.894Z,-0.95
2023-01-01T17:25:22.587Z,-0.96
2023-01-01T17:27:49.251Z,-0.93
2023-01-01T17:30:16.042Z,-0.97
2023-01-01T17:32:42.713Z,-1.01
2023-01-01T17:35:09.816Z,-1.01
2023-01-01T17:37:36.531Z,-1.02
2023-01-01T17:40:03.360Z,-1.01
2023-01-01T17:42:30.113Z,-1.00
2023-01-01T17:44:56.836Z,-1.00
2023-01-01T17:47:26.700Z,-1.02
2023-01-01T17:49:57.644Z,-1.05
2023-01-01T17:52:24.409Z,-1.06
2023-01-01T17:54:51.957Z,-1.07
2023-01-01T17:57:19.131Z,-1.08
2023-01-01T17:59:45.913Z,-1.09
2023-01-01T18:02:13.744Z,-1.11
2023-01-01T18:04:41.528Z,-1.13
2023-01-01T18:07:08.260Z,-1.18
2023-01-01T18:09:36.913Z,-1.22
2023-01-01T18:12:04.224Z,-1.27
2023-01-01T18:14:30.937Z,-1.29
2023-01-01T18:16:58.170Z,-1.28
2023-01-01T18:19:24.882Z,-1.27
2023-01-01T18:21:51.554Z,-1.27
2023-01-01T18:24:18.240Z,-1.27
2023-01-01T18:26:44.964Z,-1.27
2023-01-01T18:29:11.648Z,-1.32
2023-01-01T18:31:38.373Z,-1.33
2023-01-01T18:34:07.012Z,-1.36
2023-01-01T18:36:34.884Z,-1.41
2023-01-01T18:39:22.429Z,-1.51
2023-01-01T18:41:49.079Z,-1.52
2023-01-01T18:44:23.606Z,-1.52
2023-01-01T18:46:58.234Z,-1.53
2023-01-01T18:49:25.744Z,-1.59
2023-01-01T18:52:16.833Z,-1.58
2023-01-01T18:54:43.516Z,-1.57
2023-01-01T18:57:26.971Z,-1.60
2023-01-01T18:59:59.440Z,-1.61
2023-01-01T19:02:39.260Z,-1.62
2023-01-01T19:05:24.773Z,-1.58
2023-01-01T19:08:07.640Z,-1.58
2023-01-01T19:10:42.814Z,-1.58
2023-01-01T19:13:35.303Z,-1.58
2023-01-01T19:16:11.308Z,-1.58
2023-01-01T19:18:45.668Z,-1.59
2023-01-01T19:21:12.354Z,-1.59
2023-01-01T19:23:51.072Z,-1.58
2023-01-01T19:26:34.641Z,-1.58
2023-01-01T19:29:22.160Z,-1.59
2023-01-01T19:31:58.660Z,-1.63
2023-01-01T19:34:25.772Z,-1.67
2023-01-01T19:36:52.900Z,-1.71
2023-01-01T19:39:19.610Z,-1.73
2023-01-01T19:41:47.012Z,-1.73
2023-01-01T19:44:13.690Z,-1.72
2023-01-01T19:46:40.431Z,-1.72
2023-01-01T19:49:07.150Z,-1.75
2023-01-01T19:51:33.834Z,-1.75
2023-01-01T19:54:00.804Z,-1.74
2023-01-01T19:56:27.566Z,-1.77
2023-01-01T19:58:54.284Z,-1.78
2023-01-01T20:01:21.144Z,-1.77
2023-01-01T20:03:57.085Z,-1.78
2023-01-01T20:06:25.255Z,-1.78
2023-01-01T20:08:52.769Z,-1.78
2023-01-01T20:11:20.066Z,-1.81
2023-01-01T20:13:46.860Z,-1.86
2023-01-01T20:16:13.759Z,-1.91
2023-01-01T20:18:40.533Z,-1.92
2023-01-01T20:21:26.913Z,-1.94
2023-01-01T20:23:55.015Z,-1.94
2023-01-01T20:26:23.675Z,-1.91
2023-01-01T20:29:09.588Z,-1.93
2023-01-01T20:31:36.982Z,-1.96
2023-01-01T20:34:03.756Z,-2.00
2023-01-01T20:36:49.162Z,-2.05
2023-01-01T20:39:15.833Z,-2.10
2023-01-01T20:41:42.584Z,-2.16
2023-01-01T20:44:09.288Z,-2.20
2023-01-01T20:46:38.356Z,-2.19
2023-01-01T20:49:05.342Z,-2.18
2023-01-01T20:51:32.204Z,-2.19
2023-01-01T20:53:58.873Z,-2.18
2023-01-01T20:56:25.783Z,-2.18
2023-01-01T20:58:58.956Z,-2.20
2023-01-01T21:01:26.351Z,-2.19
2023-01-01T21:03:53.395Z,-2.21
2023-01-01T21:06:24.577Z,-2.23
2023-01-01T21:08:52.171Z,-2.26
2023-01-01T21:11:18.889Z,-2.30
2023-01-01T21:13:45.755Z,-2.32
2023-01-01T21:16:22.693Z,-2.38
2023-01-01T21:18:49.576Z,-2.42
2023-01-01T21:21:16.261Z,-2.45
2023-01-01T21:23:43.573Z,-2.47
2023-01-01T21:26:23.461Z,-2.46
2023-01-01T21:28:50.244Z,-2.46
2023-01-01T21:31:17.296Z,-2.47
2023-01-01T21:33:45.374Z,-2.50
2023-01-01T21:36:21.633Z,-2.50
2023-01-01T21:38:50.598Z,-2.54
2023-01-01T21:41:26.069Z,-2.57
2023-01-01T21:43:58.071Z,-2.60
2023-01-01T21:46:27.610Z,-2.60
2023-01-01T21:49:02.338Z,-2.62
2023-01-01T21:51:33.532Z,-2.65
2023-01-01T21:54:12.102Z,-2.71
2023-01-01T21:56:40.946Z,-2.72
2023-01-01T21:59:27.447Z,-2.70
2023-01-01T22:02:00.731Z,-2.74
2023-01-01T22:04:51.344Z,-2.79
2023-01-01T22:10:29.877Z,-2.81
2023-01-01T22:13:00.443Z,-2.81
2023-01-01T22:15:30.020Z,-2.81
2023-01-01T22:18:19.116Z,-2.84
2023-01-01T22:20:47.062Z,-2.82
2023-01-01T22:23:19.808Z,-2.79
2023-01-01T22:25:47.477Z,-2.78
2023-01-01T22:28:26.821Z,-2.77
2023-01-01T22:30:59.261Z,-2.73
2023-01-01T22:33:46.202Z,-2.75
2023-01-01T22:36:34.599Z,-2.76
2023-01-01T22:39:03.412Z,-2.78
2023-01-01T22:41:30.241Z,-2.80
2023-01-01T22:44:00.446Z,-2.82
2023-01-01T22:46:32.136Z,-2.85
2023-01-01T22:49:02.917Z,-2.84
2023-01-01T22:51:39.153Z,-2.88
2023-01-01T22:54:05.957Z,-2.83
2023-01-01T22:56:32.633Z,-2.82
2023-01-01T22:58:59.475Z,-2.81
2023-01-01T23:01:26.718Z,-2.87
2023-01-01T23:03:53.459Z,-2.89
2023-01-01T23:06:21.180Z,-2.97
2023-01-01T23:08:49.174Z,-3.13
2023-01-01T23:11:19.336Z,-3.21
2023-01-01T23:14:09.548Z,-3.21
2023-01-01T23:16:36.853Z,-3.15
2023-01-01T23:19:03.990Z,-3.08
2023-01-01T23:21:32.750Z,-3.08
2023-01-01T23:24:02.942Z,-3.03
2023-01-01T23:26:29.833Z,-3.04
2023-01-01T23:28:57.007Z,-3.04
2023-01-01T23:31:27.542Z,-3.06
2023-01-01T23:33:56.234Z,-2.98
2023-01-01T23:36:27.827Z,-2.93
2023-01-01T23:38:54.594Z,-2.89
2023-01-01T23:41:23.174Z,-2.88
2023-01-01T23:43:50.324Z,-2.86
2023-01-01T23:46:18.202Z,-2.83
2023-01-01T23:48:46.531Z,-2.82
2023-01-01T23:51:14.428Z,-2.77
2023-01-01T23:53:41.119Z,-2.74
2023-01-01T23:56:08.093Z,-2.74
2023-01-01T23:58:34.892Z,-2.73
